createdAt,value
2019-04-26T00:02:01.400Z,4.70
2019-04-26T00:04:35.638Z,5.10
2019-04-26T00:07:10.423Z,4.20
2019-04-26T00:09:44.950Z,4.62
2019-04-26T00:12:34.668Z,5.28
2019-04-26T00:15:27.448Z,5.67
2019-04-26T00:18:02.044Z,4.10
2019-04-26T00:20:35.851Z,4.30
2019-04-26T00:23:10.737Z,4.42
2019-04-26T00:25:45.182Z,4.10
2019-04-26T00:28:19.001Z,4.75
2019-04-26T00:30:52.773Z,3.83
2019-04-26T00:33:26.597Z,5.65
2019-04-26T00:36:00.326Z,4.95
2019-04-26T00:38:34.091Z,4.08
2019-04-26T00:41:07.851Z,3.90
2019-04-26T00:43:42.019Z,3.47
2019-04-26T00:46:16.728Z,3.98
2019-04-26T00:48:50.671Z,4.35
2019-04-26T00:51:24.361Z,3.77
2019-04-26T00:53:58.252Z,4.00
2019-04-26T00:56:32.082Z,3.83
2019-04-26T00:59:06.266Z,5.00
2019-04-26T01:01:42.771Z,3.77
2019-04-26T01:04:17.071Z,4.85
2019-04-26T01:06:52.581Z,3.58
2019-04-26T01:09:26.443Z,4.58
2019-04-26T01:12:00.219Z,4.30
2019-04-26T01:14:34.001Z,3.72
2019-04-26T01:17:07.942Z,4.75
2019-04-26T01:19:41.993Z,4.12
2019-04-26T01:22:23.963Z,4.03
2019-04-26T01:24:57.685Z,4.78
2019-04-26T01:27:32.092Z,3.50
2019-04-26T01:30:08.745Z,4.00
2019-04-26T01:32:43.038Z,4.65
2019-04-26T01:35:17.843Z,3.75
2019-04-26T01:37:52.594Z,5.20
2019-04-26T01:40:28.216Z,3.33
2019-04-26T01:43:26.550Z,4.62
2019-04-26T01:46:12.392Z,5.03
2019-04-26T01:48:58.434Z,3.60
2019-04-26T01:51:49.338Z,4.50
2019-04-26T01:54:26.318Z,4.60
2019-04-26T01:57:03.713Z,3.85
2019-04-26T01:59:39.904Z,3.67
2019-04-26T02:02:31.921Z,3.10
2019-04-26T02:05:09.887Z,3.83
2019-04-26T02:07:44.317Z,3.67
2019-04-26T02:10:20.503Z,3.62
2019-04-26T02:12:54.434Z,3.50
2019-04-26T02:15:31.253Z,4.22
2019-04-26T02:18:05.116Z,3.27
2019-04-26T02:21:03.073Z,3.30
2019-04-26T02:23:50.301Z,3.72
2019-04-26T02:26:51.977Z,3.45
2019-04-26T02:29:28.570Z,3.27
2019-04-26T02:32:05.288Z,3.80
2019-04-26T02:34:39.044Z,3.37
2019-04-26T02:37:13.302Z,3.98
2019-04-26T02:39:47.131Z,3.95
2019-04-26T02:42:31.008Z,3.10
2019-04-26T02:45:36.010Z,3.47
2019-04-26T02:48:22.316Z,3.35
2019-04-26T02:51:03.125Z,3.17
2019-04-26T02:54:00.356Z,3.45
2019-04-26T02:56:40.109Z,3.35
2019-04-26T02:59:40.768Z,3.22
2019-04-26T03:02:26.569Z,3.22
2019-04-26T03:05:05.095Z,3.37
2019-04-26T03:08:10.293Z,3.85
2019-04-26T03:10:57.498Z,3.40
2019-04-26T03:13:40.429Z,3.35
2019-04-26T03:16:39.217Z,3.55
2019-04-26T03:19:32.140Z,3.40
2019-04-26T03:22:47.685Z,3.33
2019-04-26T03:26:07.476Z,3.22
2019-04-26T03:28:49.848Z,3.35
2019-04-26T03:32:25.405Z,3.72
2019-04-26T03:35:27.643Z,3.30
2019-04-26T03:38:24.055Z,3.27
2019-04-26T03:41:41.097Z,3.02
2019-04-26T03:44:30.800Z,3.47
2019-04-26T03:47:07.368Z,3.37
2019-04-26T03:50:14.230Z,3.65
2019-04-26T03:53:29.920Z,3.72
2019-04-26T03:56:41.710Z,3.50
2019-04-26T03:59:40.281Z,4.40
2019-04-26T04:02:26.756Z,4.25
2019-04-26T04:05:23.807Z,3.30
2019-04-26T04:07:57.629Z,2.90
2019-04-26T04:10:47.558Z,3.12
2019-04-26T04:13:55.218Z,3.00
2019-04-26T04:17:26.782Z,2.90
2019-04-26T04:21:14.224Z,3.00
2019-04-26T04:24:08.960Z,3.00
2019-04-26T04:27:15.625Z,3.20
2019-04-26T04:29:57.546Z,3.62
2019-04-26T04:32:49.653Z,2.92
2019-04-26T04:35:23.811Z,2.90
2019-04-26T04:38:09.437Z,3.22
2019-04-26T04:41:14.018Z,3.12
2019-04-26T04:44:04.102Z,2.98
2019-04-26T04:47:24.356Z,3.35
2019-04-26T04:50:36.494Z,3.42
2019-04-26T04:53:58.434Z,3.08
2019-04-26T04:57:34.299Z,3.70
2019-04-26T05:00:28.606Z,3.02
2019-04-26T05:03:51.102Z,4.97
2019-04-26T05:07:13.682Z,3.50
2019-04-26T05:10:20.146Z,3.52
2019-04-26T05:13:29.877Z,6.25
2019-04-26T05:16:44.957Z,4.95
2019-04-26T05:20:01.763Z,3.85
2019-04-26T05:23:57.020Z,6.85
2019-04-26T05:27:50.927Z,3.62
2019-04-26T05:31:33.640Z,26.45
2019-04-26T05:34:29.903Z,9.88
2019-04-26T05:37:45.326Z,35.65
2019-04-26T05:41:34.835Z,41.68
2019-04-26T05:44:25.147Z,31.97
2019-04-26T05:47:30.014Z,28.60
2019-04-26T05:51:09.447Z,30.62
2019-04-26T05:55:03.481Z,23.38
2019-04-26T05:58:26.754Z,22.40
2019-04-26T06:01:47.071Z,29.42
2019-04-26T06:05:15.957Z,24.37
2019-04-26T06:08:41.642Z,20.88
2019-04-26T06:11:27.164Z,23.80
2019-04-26T06:14:47.869Z,23.87
2019-04-26T06:18:16.609Z,17.37
2019-04-26T06:21:02.831Z,23.87
2019-04-26T06:24:10.586Z,21.15
2019-04-26T06:27:22.573Z,17.55
2019-04-26T06:30:07.646Z,21.52
2019-04-26T06:33:30.106Z,14.38
2019-04-26T06:36:07.582Z,23.67
2019-04-26T06:39:40.006Z,18.17
2019-04-26T06:42:58.817Z,14.53
2019-04-26T06:46:34.170Z,16.65
2019-04-26T06:49:34.622Z,13.72
2019-04-26T06:52:11.693Z,19.42
2019-04-26T06:55:17.606Z,19.90
2019-04-26T06:58:42.632Z,16.27
2019-04-26T07:01:36.041Z,16.67
2019-04-26T07:04:51.920Z,17.35
2019-04-26T07:08:19.584Z,14.87
2019-04-26T07:12:03.022Z,17.35
2019-04-26T07:15:30.910Z,14.83
2019-04-26T07:18:54.538Z,11.10
2019-04-26T07:22:35.625Z,12.35
2019-04-26T07:26:13.858Z,14.95
2019-04-26T07:29:40.486Z,14.98
2019-04-26T07:32:42.333Z,13.22
2019-04-26T07:35:30.003Z,39.08
2019-04-26T07:39:19.987Z,14.23
2019-04-26T07:42:57.227Z,15.50
2019-04-26T07:46:10.658Z,11.73
2019-04-26T07:49:50.536Z,18.37
2019-04-26T07:52:57.546Z,15.05
2019-04-26T07:55:56.634Z,20.43
2019-04-26T07:59:28.119Z,17.17
2019-04-26T08:02:31.785Z,16.45
2019-04-26T08:05:17.858Z,13.95
2019-04-26T08:07:56.377Z,16.02
2019-04-26T08:10:31.350Z,15.83
2019-04-26T08:13:08.363Z,15.88
2019-04-26T08:16:14.679Z,13.80
2019-04-26T08:18:54.040Z,14.87
2019-04-26T08:21:31.993Z,14.58
2019-04-26T08:24:28.083Z,14.73
2019-04-26T08:27:23.351Z,14.35
2019-04-26T08:30:03.254Z,12.55
2019-04-26T08:32:41.760Z,15.03
2019-04-26T08:35:40.332Z,12.82
2019-04-26T08:38:21.953Z,14.70
2019-04-26T08:40:49.834Z,13.05
2019-04-26T08:43:45.443Z,11.65
2019-04-26T08:46:32.261Z,17.95
2019-04-26T08:49:29.135Z,13.98
2019-04-26T08:52:13.917Z,13.22
2019-04-26T08:54:46.324Z,13.40
2019-04-26T08:57:21.575Z,14.40
2019-04-26T08:59:56.585Z,12.10
2019-04-26T09:03:11.785Z,13.13
2019-04-26T09:06:15.698Z,16.75
2019-04-26T09:08:49.869Z,13.30
2019-04-26T09:11:29.992Z,12.93
2019-04-26T09:13:59.242Z,11.22
2019-04-26T09:16:33.067Z,13.08
2019-04-26T09:19:07.386Z,11.55
2019-04-26T09:21:47.491Z,13.15
2019-04-26T09:24:40.477Z,15.48
2019-04-26T09:27:38.976Z,15.83
2019-04-26T09:30:34.085Z,13.48
2019-04-26T09:33:38.362Z,14.30
2019-04-26T09:36:12.422Z,11.18
2019-04-26T09:38:46.325Z,15.70
2019-04-26T09:41:20.112Z,10.53
2019-04-26T09:44:05.422Z,10.48
2019-04-26T09:46:58.002Z,10.48
2019-04-26T09:49:42.327Z,10.43
2019-04-26T09:52:20.234Z,11.00
2019-04-26T09:54:54.024Z,13.18
2019-04-26T09:57:27.810Z,10.63
2019-04-26T10:00:03.608Z,10.32
2019-04-26T10:02:37.467Z,8.35
2019-04-26T10:05:17.567Z,10.03
2019-04-26T10:07:50.301Z,9.68
2019-04-26T10:10:25.677Z,8.98
2019-04-26T10:13:20.996Z,13.72
2019-04-26T10:16:16.834Z,13.10
2019-04-26T10:18:59.392Z,11.85
2019-04-26T10:21:33.275Z,11.43
2019-04-26T10:24:08.545Z,10.25
2019-04-26T10:26:42.968Z,10.90
2019-04-26T10:29:16.655Z,11.65
2019-04-26T10:31:51.740Z,14.85
2019-04-26T10:34:25.872Z,11.00
2019-04-26T10:37:01.481Z,9.38
2019-04-26T10:39:37.127Z,11.93
2019-04-26T10:42:10.932Z,13.55
2019-04-26T10:44:45.914Z,13.08
2019-04-26T10:47:20.523Z,12.80
2019-04-26T10:49:58.245Z,15.35
2019-04-26T10:52:38.435Z,15.10
2019-04-26T10:55:29.641Z,13.03
2019-04-26T10:58:25.021Z,13.35
2019-04-26T11:01:00.344Z,13.75
2019-04-26T11:03:35.101Z,14.23
2019-04-26T11:06:08.850Z,16.10
2019-04-26T11:08:43.310Z,13.43
2019-04-26T11:11:17.025Z,13.48
2019-04-26T11:13:50.689Z,12.55
2019-04-26T11:16:24.508Z,11.33
2019-04-26T11:19:01.148Z,14.45
2019-04-26T11:21:35.655Z,13.90
2019-04-26T11:24:09.678Z,16.73
2019-04-26T11:26:43.383Z,12.93
2019-04-26T11:29:17.187Z,10.55
2019-04-26T11:31:51.263Z,15.48
2019-04-26T11:34:25.231Z,13.10
2019-04-26T11:36:59.210Z,10.08
2019-04-26T11:39:36.463Z,11.75
2019-04-26T11:42:13.227Z,9.33
2019-04-26T11:44:49.084Z,9.68
2019-04-26T11:47:24.096Z,9.75
2019-04-26T11:49:57.915Z,12.55
2019-04-26T11:52:35.914Z,9.60
2019-04-26T11:55:09.003Z,11.05
2019-04-26T11:57:43.676Z,10.45
2019-04-26T12:00:27.658Z,8.38
2019-04-26T12:03:01.577Z,7.70
2019-04-26T12:05:50.093Z,9.35
2019-04-26T12:08:33.247Z,9.85
2019-04-26T12:11:17.869Z,7.83
2019-04-26T12:13:43.341Z,8.50
2019-04-26T12:16:18.684Z,8.10
2019-04-26T12:18:52.664Z,9.50
2019-04-26T12:21:26.269Z,7.28
2019-04-26T12:24:00.096Z,9.03
2019-04-26T12:26:42.530Z,8.98
2019-04-26T12:29:10.434Z,8.45
2019-04-26T12:31:45.303Z,10.43
2019-04-26T12:34:19.188Z,7.65
2019-04-26T12:36:53.102Z,7.10
2019-04-26T12:39:26.917Z,9.13
2019-04-26T12:42:00.654Z,9.75
2019-04-26T12:44:43.793Z,7.78
2019-04-26T12:47:22.265Z,12.63
2019-04-26T12:49:58.966Z,9.53
2019-04-26T12:52:31.465Z,8.40
2019-04-26T12:55:05.345Z,7.22
2019-04-26T12:57:40.926Z,6.83
2019-04-26T13:00:16.308Z,6.97
2019-04-26T13:02:53.735Z,9.03
2019-04-26T13:05:25.525Z,8.50
2019-04-26T13:07:59.162Z,7.47
2019-04-26T13:10:51.830Z,8.88
2019-04-26T13:13:45.056Z,7.12
2019-04-26T13:16:46.860Z,8.45
2019-04-26T13:19:21.055Z,8.03
2019-04-26T13:21:54.948Z,9.08
2019-04-26T13:24:28.666Z,7.53
2019-04-26T13:27:06.042Z,7.60
2019-04-26T13:29:37.916Z,7.60
2019-04-26T13:32:11.825Z,6.90
2019-04-26T13:34:45.616Z,7.92
2019-04-26T13:37:19.367Z,6.97
2019-04-26T13:39:55.306Z,7.30
2019-04-26T13:42:29.398Z,6.60
2019-04-26T13:45:15.091Z,7.03
2019-04-26T13:48:13.583Z,9.78
2019-04-26T13:50:51.755Z,7.47
2019-04-26T13:53:25.750Z,5.62
2019-04-26T13:56:01.905Z,7.22
2019-04-26T13:58:35.252Z,9.30
2019-04-26T14:01:14.521Z,7.42
2019-04-26T14:03:46.396Z,6.10
2019-04-26T14:06:20.159Z,6.08
2019-04-26T14:08:57.805Z,6.90
2019-04-26T14:11:29.598Z,6.45
2019-04-26T14:14:03.524Z,6.50
2019-04-26T14:16:37.416Z,7.28
2019-04-26T14:19:15.401Z,8.78
2019-04-26T14:21:46.620Z,8.75
2019-04-26T14:24:36.026Z,6.78
2019-04-26T14:27:16.666Z,6.85
2019-04-26T14:29:50.605Z,8.93
2019-04-26T14:32:24.318Z,7.92
2019-04-26T14:34:58.130Z,8.60
2019-04-26T14:37:31.851Z,8.78
2019-04-26T14:40:16.857Z,5.33
2019-04-26T14:42:45.841Z,11.57
2019-04-26T14:45:23.796Z,7.12
2019-04-26T14:47:54.691Z,7.60
2019-04-26T14:50:31.979Z,7.20
2019-04-26T14:53:03.866Z,5.50
2019-04-26T14:55:37.627Z,7.65
2019-04-26T14:58:12.271Z,9.30
2019-04-26T15:00:51.455Z,7.40
2019-04-26T15:03:35.413Z,7.20
2019-04-26T15:06:25.889Z,6.78
2019-04-26T15:08:59.665Z,5.72
2019-04-26T15:11:36.102Z,9.15
2019-04-26T15:14:12.727Z,7.42
2019-04-26T15:16:44.998Z,6.60
2019-04-26T15:19:19.737Z,5.28
2019-04-26T15:21:53.652Z,8.20
2019-04-26T15:24:30.160Z,9.88
2019-04-26T15:27:03.368Z,8.80
2019-04-26T15:29:37.337Z,14.98
2019-04-26T15:32:12.762Z,12.25
2019-04-26T15:34:46.496Z,13.32
2019-04-26T15:37:24.378Z,8.28
2019-04-26T15:40:13.096Z,20.50
2019-04-26T15:43:04.898Z,10.18
2019-04-26T15:45:44.491Z,10.38
2019-04-26T15:48:54.532Z,8.93
2019-04-26T15:51:29.699Z,9.00
2019-04-26T15:54:03.453Z,10.63
2019-04-26T15:56:37.059Z,10.30
2019-04-26T15:59:12.720Z,8.08
2019-04-26T16:01:49.179Z,11.85
2019-04-26T16:04:23.898Z,12.88
2019-04-26T16:06:57.794Z,11.83
2019-04-26T16:09:32.458Z,7.47
2019-04-26T16:12:06.566Z,7.97
2019-04-26T16:14:42.124Z,6.40
2019-04-26T16:17:15.667Z,8.60
2019-04-26T16:19:49.312Z,9.88
2019-04-26T16:22:25.898Z,8.03
2019-04-26T16:25:04.039Z,7.45
2019-04-26T16:27:34.573Z,8.93
2019-04-26T16:30:32.629Z,7.42
2019-04-26T16:33:13.091Z,8.65
2019-04-26T16:35:47.765Z,6.90
2019-04-26T16:38:33.082Z,8.00
2019-04-26T16:41:07.467Z,7.40
2019-04-26T16:43:50.875Z,6.08
2019-04-26T16:46:20.436Z,8.45
2019-04-26T16:48:57.074Z,8.30
2019-04-26T16:51:28.493Z,6.03
2019-04-26T16:54:07.545Z,8.43
2019-04-26T16:56:39.031Z,12.55
2019-04-26T16:59:14.340Z,8.65
2019-04-26T17:01:48.781Z,7.33
2019-04-26T17:04:29.063Z,7.87
2019-04-26T17:07:04.265Z,5.60
2019-04-26T17:09:54.821Z,6.03
2019-04-26T17:12:14.807Z,5.45
2019-04-26T17:14:48.833Z,9.00
2019-04-26T17:17:22.373Z,8.43
2019-04-26T17:19:56.306Z,5.80
2019-04-26T17:22:59.511Z,8.03
2019-04-26T17:26:02.073Z,8.45
2019-04-26T17:28:37.036Z,11.60
2019-04-26T17:31:12.428Z,7.92
2019-04-26T17:33:46.185Z,9.15
2019-04-26T17:36:19.913Z,8.30
2019-04-26T17:38:53.657Z,7.20
2019-04-26T17:41:27.525Z,7.92
2019-04-26T17:44:08.341Z,6.70
2019-04-26T17:46:37.223Z,6.80
2019-04-26T17:49:11.182Z,8.45
2019-04-26T17:51:45.133Z,7.67
2019-04-26T17:54:41.040Z,6.03
2019-04-26T17:56:55.189Z,3.37
2019-04-26T17:59:34.653Z,5.30
2019-04-26T18:02:18.014Z,5.55
2019-04-26T18:04:42.786Z,6.17
2019-04-26T18:07:37.175Z,6.58
2019-04-26T18:09:52.533Z,5.72
2019-04-26T18:12:26.375Z,3.25
2019-04-26T18:15:03.589Z,9.30
2019-04-26T18:17:53.095Z,3.40
2019-04-26T18:20:48.439Z,9.70
2019-04-26T18:23:23.374Z,4.90
2019-04-26T18:25:57.257Z,5.70
2019-04-26T18:28:31.005Z,6.95
2019-04-26T18:31:07.094Z,6.72
2019-04-26T18:33:40.737Z,9.40
2019-04-26T18:36:14.489Z,8.65
2019-04-26T18:38:48.685Z,6.62
2019-04-26T18:41:28.575Z,12.68
2019-04-26T18:44:00.876Z,15.50
2019-04-26T18:46:46.926Z,8.33
2019-04-26T18:49:22.461Z,19.23
2019-04-26T18:51:52.128Z,12.03
2019-04-26T18:54:34.652Z,15.38
2019-04-26T18:57:09.611Z,14.28
2019-04-26T18:59:44.764Z,9.53
2019-04-26T19:02:21.159Z,11.83
2019-04-26T19:04:54.835Z,10.75
2019-04-26T19:07:32.305Z,18.40
2019-04-26T19:10:05.553Z,18.45
2019-04-26T19:12:43.496Z,17.70
2019-04-26T19:15:27.599Z,17.90
2019-04-26T19:18:31.413Z,12.40
2019-04-26T19:21:11.637Z,10.43
2019-04-26T19:23:45.342Z,19.67
2019-04-26T19:26:31.747Z,22.42
2019-04-26T19:28:54.567Z,18.85
2019-04-26T19:31:28.462Z,23.90
2019-04-26T19:34:02.189Z,13.72
2019-04-26T19:36:35.999Z,19.32
2019-04-26T19:39:09.874Z,16.12
2019-04-26T19:41:43.635Z,13.22
2019-04-26T19:44:18.854Z,22.55
2019-04-26T19:47:22.695Z,19.52
2019-04-26T19:50:21.890Z,16.70
2019-04-26T19:53:10.415Z,15.98
2019-04-26T19:56:10.544Z,17.00
2019-04-26T19:58:45.988Z,21.25
2019-04-26T20:01:23.279Z,18.17
2019-04-26T20:03:56.005Z,19.62
2019-04-26T20:06:29.665Z,24.82
2019-04-26T20:09:03.308Z,14.30
2019-04-26T20:11:37.024Z,18.62
2019-04-26T20:14:12.381Z,17.23
2019-04-26T20:16:46.281Z,19.92
2019-04-26T20:19:32.413Z,19.75
2019-04-26T20:21:55.514Z,19.10
2019-04-26T20:24:29.169Z,17.57
2019-04-26T20:27:03.489Z,17.62
2019-04-26T20:29:40.823Z,16.97
2019-04-26T20:32:25.793Z,17.62
2019-04-26T20:35:20.018Z,18.87
2019-04-26T20:37:52.324Z,15.18
2019-04-26T20:40:27.764Z,13.72
2019-04-26T20:43:05.327Z,11.80
2019-04-26T20:45:41.457Z,13.93
2019-04-26T20:48:12.499Z,18.25
2019-04-26T20:50:46.332Z,18.32
2019-04-26T20:53:21.638Z,16.07
2019-04-26T20:55:55.536Z,13.75
2019-04-26T20:58:29.304Z,14.83
2019-04-26T21:01:06.389Z,12.78
2019-04-26T21:03:44.428Z,11.22
2019-04-26T21:06:15.332Z,14.28
2019-04-26T21:08:49.163Z,13.28
2019-04-26T21:11:22.950Z,15.38
2019-04-26T21:13:56.817Z,13.43
2019-04-26T21:16:32.228Z,14.30
2019-04-26T21:19:06.091Z,12.98
2019-04-26T21:21:41.920Z,9.03
2019-04-26T21:24:19.990Z,9.63
2019-04-26T21:27:09.807Z,10.65
2019-04-26T21:30:03.158Z,9.95
2019-04-26T21:32:59.331Z,11.35
2019-04-26T21:36:01.867Z,6.75
2019-04-26T21:38:43.860Z,10.50
2019-04-26T21:41:20.354Z,9.25
2019-04-26T21:43:54.071Z,9.88
2019-04-26T21:46:28.939Z,6.20
2019-04-26T21:49:03.607Z,8.85
2019-04-26T21:51:37.501Z,8.98
2019-04-26T21:54:14.461Z,5.58
2019-04-26T21:56:49.604Z,9.25
2019-04-26T21:59:22.092Z,6.42
2019-04-26T22:01:59.204Z,5.10
2019-04-26T22:04:37.502Z,5.28
2019-04-26T22:07:08.921Z,5.53
2019-04-26T22:10:00.667Z,4.97
2019-04-26T22:12:34.985Z,5.65
2019-04-26T22:15:39.654Z,5.62
2019-04-26T22:18:21.468Z,4.60
2019-04-26T22:21:02.078Z,5.90
2019-04-26T22:24:06.803Z,6.85
2019-04-26T22:26:44.539Z,5.17
2019-04-26T22:29:16.830Z,5.12
2019-04-26T22:31:50.839Z,6.03
2019-04-26T22:34:24.537Z,4.62
2019-04-26T22:37:01.868Z,4.35
2019-04-26T22:39:39.913Z,4.75
2019-04-26T22:42:09.956Z,3.37
2019-04-26T22:45:03.348Z,4.60
2019-04-26T22:47:59.477Z,4.22
2019-04-26T22:50:33.675Z,5.03
2019-04-26T22:53:07.417Z,5.28
2019-04-26T22:55:43.464Z,3.77
2019-04-26T22:58:20.664Z,3.75
2019-04-26T23:00:53.820Z,4.60
2019-04-26T23:03:27.646Z,4.05
2019-04-26T23:06:01.497Z,3.65
2019-04-26T23:08:38.158Z,4.08
2019-04-26T23:11:11.023Z,3.47
2019-04-26T23:13:55.769Z,2.75
2019-04-26T23:16:40.423Z,4.60
2019-04-26T23:19:35.415Z,3.77
2019-04-26T23:22:09.426Z,3.47
2019-04-26T23:24:44.931Z,4.28
2019-04-26T23:27:20.597Z,2.83
2019-04-26T23:29:57.368Z,3.87
2019-04-26T23:32:29.586Z,3.98
2019-04-26T23:35:05.998Z,3.67
2019-04-26T23:37:38.763Z,4.17
2019-04-26T23:40:12.508Z,2.77
2019-04-26T23:42:47.542Z,3.45
2019-04-26T23:45:23.113Z,2.30
2019-04-26T23:47:56.997Z,2.22
2019-04-26T23:50:30.928Z,2.52
2019-04-26T23:53:05.786Z,5.90
2019-04-26T23:55:42.502Z,4.12
2019-04-26T23:58:15.050Z,2.40
